createdAt,value
2019-03-27T00:00:19.290Z,16.67
2019-03-27T00:02:46.877Z,19.62
2019-03-27T00:05:14.457Z,19.40
2019-03-27T00:07:42.076Z,13.67
2019-03-27T00:10:09.662Z,18.33
2019-03-27T00:12:37.238Z,13.23
2019-03-27T00:15:12.904Z,16.60
2019-03-27T00:17:32.435Z,18.23
2019-03-27T00:20:00.012Z,18.00
2019-03-27T00:22:27.626Z,18.87
2019-03-27T00:24:55.207Z,17.27
2019-03-27T00:27:23.558Z,20.10
2019-03-27T00:29:51.169Z,12.57
2019-03-27T00:32:18.765Z,18.00
2019-03-27T00:34:46.345Z,15.67
2019-03-27T00:37:13.962Z,16.77
2019-03-27T00:39:41.546Z,18.45
2019-03-27T00:42:09.131Z,17.00
2019-03-27T00:44:36.743Z,14.07
2019-03-27T00:47:04.323Z,13.10
2019-03-27T00:49:31.912Z,17.10
2019-03-27T00:51:59.527Z,14.03
2019-03-27T00:54:27.871Z,16.40
2019-03-27T00:56:55.456Z,15.07
2019-03-27T00:59:24.199Z,16.98
2019-03-27T01:01:51.816Z,20.37
2019-03-27T01:04:20.159Z,14.00
2019-03-27T01:06:50.737Z,15.93
2019-03-27T01:09:15.352Z,17.57
2019-03-27T01:11:42.936Z,14.83
2019-03-27T01:14:10.542Z,14.40
2019-03-27T01:16:38.126Z,16.98
2019-03-27T01:19:05.708Z,13.77
2019-03-27T01:21:33.331Z,18.10
2019-03-27T01:24:01.670Z,15.13
2019-03-27T01:26:29.254Z,20.77
2019-03-27T01:28:57.637Z,16.43
2019-03-27T01:31:25.983Z,19.67
2019-03-27T01:33:53.569Z,13.07
2019-03-27T01:36:21.607Z,14.00
2019-03-27T01:38:49.691Z,21.87
2019-03-27T01:41:17.284Z,14.37
2019-03-27T01:43:45.676Z,17.83
2019-03-27T01:46:14.023Z,22.77
2019-03-27T01:48:41.606Z,15.50
2019-03-27T01:51:09.992Z,19.65
2019-03-27T01:53:38.341Z,21.60
2019-03-27T01:56:05.931Z,24.57
2019-03-27T01:58:34.313Z,21.52
2019-03-27T02:01:02.670Z,22.27
2019-03-27T02:03:30.510Z,22.47
2019-03-27T02:05:58.171Z,19.30
2019-03-27T02:08:25.763Z,24.80
2019-03-27T02:10:53.343Z,18.23
2019-03-27T02:13:21.725Z,22.15
2019-03-27T02:15:50.078Z,23.90
2019-03-27T02:18:17.662Z,23.97
2019-03-27T02:20:46.039Z,14.97
2019-03-27T02:23:14.907Z,19.00
2019-03-27T02:25:42.517Z,14.30
2019-03-27T02:28:10.139Z,13.60
2019-03-27T02:30:37.730Z,16.83
2019-03-27T02:33:06.079Z,13.87
2019-03-27T02:35:33.694Z,19.27
2019-03-27T02:38:01.276Z,16.47
2019-03-27T02:40:28.868Z,20.37
2019-03-27T02:42:56.469Z,18.40
2019-03-27T02:45:24.374Z,16.27
2019-03-27T02:47:51.953Z,22.80
2019-03-27T02:50:19.583Z,21.27
2019-03-27T02:52:47.160Z,19.97
2019-03-27T02:55:14.746Z,15.03
2019-03-27T02:57:42.364Z,23.33
2019-03-27T03:00:09.951Z,20.07
2019-03-27T03:02:37.524Z,19.60
2019-03-27T03:05:07.822Z,23.10
2019-03-27T03:07:35.401Z,16.93
2019-03-27T03:10:02.994Z,17.60
2019-03-27T03:12:31.384Z,18.60
2019-03-27T03:14:59.744Z,20.50
2019-03-27T03:17:27.319Z,18.60
2019-03-27T03:19:55.697Z,20.80
2019-03-27T03:22:24.041Z,17.63
2019-03-27T03:24:51.628Z,19.13
2019-03-27T03:27:19.254Z,17.77
2019-03-27T03:29:46.847Z,21.73
2019-03-27T03:32:14.426Z,18.17
2019-03-27T03:34:42.819Z,19.63
2019-03-27T03:37:11.171Z,24.73
2019-03-27T03:39:38.772Z,21.10
2019-03-27T03:42:06.399Z,23.77
2019-03-27T03:44:33.992Z,22.73
2019-03-27T03:47:01.585Z,23.17
2019-03-27T03:49:29.199Z,20.23
2019-03-27T03:51:57.545Z,16.30
2019-03-27T03:54:25.135Z,20.90
2019-03-27T03:56:53.529Z,21.67
2019-03-27T03:59:21.878Z,22.07
2019-03-27T04:01:49.463Z,19.90
2019-03-27T04:04:17.078Z,19.07
2019-03-27T04:06:44.667Z,16.43
2019-03-27T04:09:12.251Z,15.37
2019-03-27T04:11:40.716Z,18.37
2019-03-27T04:14:08.297Z,18.30
2019-03-27T04:16:36.641Z,18.57
2019-03-27T04:19:04.798Z,20.83
2019-03-27T04:21:32.379Z,18.80
2019-03-27T04:23:59.977Z,21.30
2019-03-27T04:26:28.406Z,22.80
2019-03-27T04:28:55.948Z,21.93
2019-03-27T04:31:23.534Z,18.13
2019-03-27T04:33:51.256Z,19.43
2019-03-27T04:36:19.625Z,25.97
2019-03-27T04:38:47.316Z,25.67
2019-03-27T04:41:14.950Z,27.25
2019-03-27T04:43:42.525Z,26.00
2019-03-27T04:46:10.113Z,26.73
2019-03-27T04:48:37.735Z,25.87
2019-03-27T04:51:06.079Z,23.87
2019-03-27T04:53:33.662Z,24.03
2019-03-27T04:56:01.299Z,22.37
2019-03-27T04:58:28.880Z,25.87
2019-03-27T05:00:56.459Z,22.70
2019-03-27T05:03:25.324Z,22.03
2019-03-27T05:05:52.973Z,20.73
2019-03-27T05:08:20.659Z,23.03
2019-03-27T05:10:48.343Z,18.73
2019-03-27T05:13:15.924Z,18.03
2019-03-27T05:15:43.509Z,18.03
2019-03-27T05:18:11.126Z,22.07
2019-03-27T05:20:39.470Z,19.50
2019-03-27T05:23:07.062Z,16.90
2019-03-27T05:25:35.789Z,25.23
2019-03-27T05:28:03.375Z,18.40
2019-03-27T05:30:30.968Z,21.60
2019-03-27T05:32:59.353Z,23.37
2019-03-27T05:35:27.722Z,20.87
2019-03-27T05:37:55.302Z,23.40
2019-03-27T05:40:23.684Z,27.87
2019-03-27T05:43:00.567Z,22.57
2019-03-27T05:45:19.626Z,22.13
2019-03-27T05:47:59.029Z,26.33
2019-03-27T05:50:16.449Z,25.83
2019-03-27T05:52:44.039Z,19.10
2019-03-27T05:55:12.427Z,20.87
2019-03-27T05:57:40.783Z,21.20
2019-03-27T06:00:08.365Z,17.50
2019-03-27T06:02:36.752Z,22.00
2019-03-27T06:05:04.335Z,21.37
2019-03-27T06:07:31.920Z,24.43
2019-03-27T06:09:59.578Z,24.03
2019-03-27T06:12:27.162Z,26.37
2019-03-27T06:14:54.748Z,27.83
2019-03-27T06:17:23.147Z,18.07
2019-03-27T06:19:51.056Z,24.20
2019-03-27T06:22:18.638Z,25.30
2019-03-27T06:24:46.266Z,23.03
2019-03-27T06:27:13.851Z,24.53
2019-03-27T06:29:41.429Z,25.33
2019-03-27T06:32:09.081Z,30.50
2019-03-27T06:34:36.668Z,30.50
2019-03-27T06:37:05.032Z,34.70
2019-03-27T06:39:32.705Z,26.73
2019-03-27T06:42:00.288Z,31.03
2019-03-27T06:44:28.635Z,26.40
2019-03-27T06:46:56.267Z,22.13
2019-03-27T06:49:23.851Z,22.63
2019-03-27T06:51:51.441Z,27.53
2019-03-27T06:54:19.832Z,25.67
2019-03-27T06:56:48.182Z,21.57
2019-03-27T06:59:15.768Z,23.80
2019-03-27T07:01:44.163Z,35.13
2019-03-27T07:04:11.743Z,26.93
2019-03-27T07:06:39.328Z,25.13
2019-03-27T07:09:06.962Z,32.07
2019-03-27T07:11:34.551Z,30.57
2019-03-27T07:14:02.143Z,26.93
2019-03-27T07:16:29.787Z,29.37
2019-03-27T07:18:57.376Z,35.13
2019-03-27T07:21:25.729Z,27.30
2019-03-27T07:23:53.888Z,26.33
2019-03-27T07:26:21.471Z,40.92
2019-03-27T07:28:49.424Z,31.47
2019-03-27T07:31:17.068Z,30.30
2019-03-27T07:33:44.657Z,25.60
2019-03-27T07:36:12.244Z,30.23
2019-03-27T07:38:40.587Z,30.30
2019-03-27T07:41:08.174Z,29.87
2019-03-27T07:43:35.755Z,30.93
2019-03-27T07:46:04.187Z,31.42
2019-03-27T07:48:31.780Z,28.93
2019-03-27T07:50:59.365Z,29.43
2019-03-27T07:53:27.084Z,31.80
2019-03-27T07:55:54.698Z,29.00
2019-03-27T07:58:22.256Z,26.83
2019-03-27T08:00:50.650Z,29.00
2019-03-27T08:03:18.240Z,29.30
2019-03-27T08:05:46.316Z,24.20
2019-03-27T08:08:13.945Z,28.57
2019-03-27T08:10:41.533Z,26.40
2019-03-27T08:13:09.131Z,28.63
2019-03-27T08:15:36.773Z,30.03
2019-03-27T08:18:04.362Z,32.93
2019-03-27T08:20:31.950Z,35.47
2019-03-27T08:22:59.597Z,34.50
2019-03-27T08:25:27.949Z,31.33
2019-03-27T08:27:55.910Z,30.43
2019-03-27T08:30:23.584Z,34.03
2019-03-27T08:32:51.166Z,35.60
2019-03-27T08:35:19.523Z,33.50
2019-03-27T08:37:47.162Z,33.47
2019-03-27T08:40:14.749Z,33.67
2019-03-27T08:42:42.342Z,34.57
2019-03-27T08:45:10.820Z,32.97
2019-03-27T08:47:38.416Z,42.40
2019-03-27T08:50:06.005Z,39.57
2019-03-27T08:52:33.640Z,41.80
2019-03-27T08:55:01.223Z,40.10
2019-03-27T08:57:28.805Z,36.67
2019-03-27T08:59:56.443Z,48.13
2019-03-27T09:02:24.025Z,37.97
2019-03-27T09:04:51.611Z,36.57
2019-03-27T09:07:20.897Z,42.37
2019-03-27T09:09:48.484Z,39.07
2019-03-27T09:12:16.074Z,46.05
2019-03-27T09:14:43.704Z,60.87
2019-03-27T09:17:12.059Z,40.27
2019-03-27T09:19:39.643Z,72.30
2019-03-27T09:22:08.113Z,38.17
2019-03-27T09:24:35.702Z,39.70
2019-03-27T09:27:03.292Z,45.37
2019-03-27T09:29:30.928Z,49.27
2019-03-27T09:31:58.515Z,41.17
2019-03-27T09:34:26.101Z,41.90
2019-03-27T09:36:54.173Z,39.53
2019-03-27T09:39:22.519Z,38.87
2019-03-27T09:41:50.108Z,57.38
2019-03-27T09:44:17.753Z,34.57
2019-03-27T09:46:45.345Z,31.60
2019-03-27T09:49:12.934Z,32.13
2019-03-27T09:51:40.581Z,34.97
2019-03-27T09:54:08.192Z,25.40
2019-03-27T09:56:35.776Z,21.83
2019-03-27T09:59:05.991Z,22.87
2019-03-27T10:01:31.365Z,20.90
2019-03-27T10:03:59.723Z,24.20
2019-03-27T10:06:27.404Z,22.93
2019-03-27T10:08:55.758Z,24.27
2019-03-27T10:11:23.946Z,39.93
2019-03-27T10:13:50.990Z,27.73
2019-03-27T10:16:18.582Z,26.07
2019-03-27T10:18:47.634Z,25.83
2019-03-27T10:21:13.807Z,25.90
2019-03-27T10:23:41.400Z,31.50
2019-03-27T10:26:08.991Z,27.30
2019-03-27T10:28:36.706Z,40.13
2019-03-27T10:31:04.316Z,26.23
2019-03-27T10:33:31.904Z,28.12
2019-03-27T10:36:00.301Z,26.63
2019-03-27T10:38:27.892Z,31.90
2019-03-27T10:40:55.479Z,24.00
2019-03-27T10:43:23.122Z,25.03
2019-03-27T10:45:50.709Z,25.67
2019-03-27T10:48:18.306Z,25.47
2019-03-27T10:50:45.943Z,22.47
2019-03-27T10:53:13.570Z,24.53
2019-03-27T10:55:41.160Z,28.23
2019-03-27T10:58:08.809Z,34.00
2019-03-27T11:00:36.394Z,28.40
2019-03-27T11:03:03.982Z,32.97
2019-03-27T11:05:31.727Z,102.70
2019-03-27T11:08:00.090Z,23.00
2019-03-27T11:10:33.688Z,31.73
2019-03-27T11:13:01.254Z,25.75
2019-03-27T11:15:28.847Z,24.03
2019-03-27T11:17:56.445Z,30.05
2019-03-27T11:20:30.899Z,32.00
2019-03-27T11:22:52.180Z,26.47
2019-03-27T11:25:19.937Z,24.90
2019-03-27T11:27:47.504Z,21.30
2019-03-27T11:30:15.099Z,25.37
2019-03-27T11:32:42.691Z,27.90
2019-03-27T11:35:11.169Z,29.02
2019-03-27T11:37:39.587Z,27.90
2019-03-27T11:40:07.126Z,20.60
2019-03-27T11:42:34.765Z,27.10
2019-03-27T11:45:02.349Z,28.13
2019-03-27T11:47:29.942Z,22.53
2019-03-27T11:49:57.579Z,29.03
2019-03-27T11:52:25.178Z,26.43
2019-03-27T11:54:52.765Z,27.30
2019-03-27T11:57:20.632Z,26.07
2019-03-27T11:59:53.731Z,26.00
2019-03-27T12:02:16.572Z,30.73
2019-03-27T12:04:44.250Z,27.80
2019-03-27T12:07:12.608Z,34.80
2019-03-27T12:09:40.195Z,27.03
2019-03-27T12:12:08.603Z,45.53
2019-03-27T12:14:36.186Z,28.93
2019-03-27T12:17:03.790Z,29.43
2019-03-27T12:19:31.504Z,27.83
2019-03-27T12:21:59.093Z,38.97
2019-03-27T12:24:28.584Z,26.77
2019-03-27T12:26:54.413Z,26.90
2019-03-27T12:29:22.055Z,28.43
2019-03-27T12:31:49.613Z,26.90
2019-03-27T12:34:17.317Z,27.43
2019-03-27T12:36:44.930Z,23.47
2019-03-27T12:39:12.527Z,36.15
2019-03-27T12:41:40.166Z,24.57
2019-03-27T12:44:07.765Z,24.10
2019-03-27T12:46:35.361Z,22.50
2019-03-27T12:49:03.002Z,27.57
2019-03-27T12:51:30.586Z,30.00
2019-03-27T12:53:58.948Z,24.23
2019-03-27T12:56:27.354Z,24.30
2019-03-27T12:58:54.949Z,26.27
2019-03-27T13:01:22.537Z,25.30
2019-03-27T13:03:50.212Z,40.00
2019-03-27T13:06:17.800Z,28.27
2019-03-27T13:08:45.404Z,25.87
2019-03-27T13:11:13.035Z,24.00
2019-03-27T13:13:40.627Z,28.67
2019-03-27T13:16:08.218Z,23.30
2019-03-27T13:18:35.859Z,29.20
2019-03-27T13:21:03.448Z,24.27
2019-03-27T13:23:31.033Z,24.20
2019-03-27T13:25:58.750Z,23.67
2019-03-27T13:28:26.335Z,25.30
2019-03-27T13:30:53.927Z,28.90
2019-03-27T13:33:21.640Z,21.80
2019-03-27T13:35:49.229Z,27.87
2019-03-27T13:38:17.586Z,34.77
2019-03-27T13:40:45.462Z,23.93
2019-03-27T13:43:13.050Z,24.60
2019-03-27T13:45:41.412Z,26.15
2019-03-27T13:48:09.585Z,21.93
2019-03-27T13:50:37.177Z,27.20
2019-03-27T13:53:04.769Z,25.73
2019-03-27T13:55:35.149Z,24.57
2019-03-27T13:57:59.998Z,19.37
2019-03-27T14:00:27.583Z,24.37
2019-03-27T14:02:55.247Z,25.73
2019-03-27T14:05:22.816Z,20.27
2019-03-27T14:07:50.412Z,22.70
2019-03-27T14:10:18.049Z,21.53
2019-03-27T14:12:45.639Z,23.33
2019-03-27T14:15:13.758Z,22.53
2019-03-27T14:17:41.615Z,22.03
2019-03-27T14:20:09.208Z,24.05
2019-03-27T14:22:36.803Z,25.37
2019-03-27T14:25:04.466Z,27.70
2019-03-27T14:27:32.060Z,25.63
2019-03-27T14:29:59.646Z,18.70
2019-03-27T14:32:27.290Z,23.63
2019-03-27T14:34:55.155Z,24.57
2019-03-27T14:37:22.747Z,18.87
2019-03-27T14:39:50.433Z,19.10
2019-03-27T14:42:17.983Z,20.40
2019-03-27T14:44:46.338Z,29.23
2019-03-27T14:47:14.042Z,20.63
2019-03-27T14:49:42.400Z,27.90
2019-03-27T14:52:09.986Z,18.37
2019-03-27T14:54:37.626Z,23.53
2019-03-27T14:57:05.223Z,22.93
2019-03-27T14:59:32.815Z,23.50
2019-03-27T15:02:00.450Z,22.47
2019-03-27T15:04:28.068Z,25.53
2019-03-27T15:06:55.680Z,21.17
2019-03-27T15:09:23.318Z,19.87
2019-03-27T15:11:51.676Z,20.80
2019-03-27T15:14:19.266Z,20.87
2019-03-27T15:16:47.358Z,19.97
2019-03-27T15:19:14.958Z,27.73
2019-03-27T15:21:42.542Z,21.77
2019-03-27T15:24:11.331Z,22.13
2019-03-27T15:26:38.931Z,19.30
2019-03-27T15:29:06.534Z,19.97
2019-03-27T15:31:34.168Z,20.40
2019-03-27T15:34:01.758Z,22.23
2019-03-27T15:36:29.346Z,19.80
2019-03-27T15:38:56.983Z,21.70
2019-03-27T15:41:24.581Z,24.47
2019-03-27T15:43:52.939Z,22.67
2019-03-27T15:46:20.575Z,19.10
2019-03-27T15:48:48.163Z,24.45
2019-03-27T15:51:15.754Z,21.37
2019-03-27T15:53:47.103Z,21.23
2019-03-27T15:56:11.481Z,21.30
2019-03-27T15:58:39.068Z,21.00
2019-03-27T16:01:07.070Z,23.53
2019-03-27T16:03:34.656Z,18.93
2019-03-27T16:06:02.246Z,22.10
2019-03-27T16:08:29.885Z,17.83
2019-03-27T16:10:58.244Z,18.90
2019-03-27T16:13:25.837Z,18.83
2019-03-27T16:15:53.496Z,21.83
2019-03-27T16:18:21.083Z,26.30
2019-03-27T16:20:48.775Z,18.07
2019-03-27T16:23:16.785Z,25.00
2019-03-27T16:25:44.374Z,16.47
2019-03-27T16:28:11.957Z,17.53
2019-03-27T16:30:40.766Z,18.30
2019-03-27T16:33:08.351Z,18.17
2019-03-27T16:35:35.942Z,19.30
2019-03-27T16:38:03.578Z,19.03
2019-03-27T16:40:46.098Z,21.83
2019-03-27T16:43:13.719Z,21.27
2019-03-27T16:45:41.810Z,20.70
2019-03-27T16:48:09.538Z,20.60
2019-03-27T16:50:37.212Z,22.77
2019-03-27T16:53:04.799Z,20.00
2019-03-27T16:55:32.395Z,19.37
2019-03-27T16:58:00.785Z,21.47
2019-03-27T17:00:29.139Z,19.50
2019-03-27T17:02:56.727Z,21.63
2019-03-27T17:05:25.701Z,19.60
2019-03-27T17:07:53.293Z,19.03
2019-03-27T17:10:20.894Z,17.60
2019-03-27T17:12:48.540Z,23.53
2019-03-27T17:15:16.137Z,19.40
2019-03-27T17:17:43.727Z,19.27
2019-03-27T17:20:12.675Z,24.33
2019-03-27T17:22:40.963Z,17.97
2019-03-27T17:25:08.550Z,21.47
2019-03-27T17:27:37.297Z,21.73
2019-03-27T17:30:04.890Z,20.10
2019-03-27T17:32:32.485Z,24.50
2019-03-27T17:35:00.249Z,24.00
2019-03-27T17:37:27.711Z,24.37
2019-03-27T17:39:55.376Z,21.37
2019-03-27T17:42:22.942Z,21.73
2019-03-27T17:44:52.152Z,19.70
2019-03-27T17:47:18.129Z,21.63
2019-03-27T17:49:46.584Z,20.02
2019-03-27T17:52:14.191Z,25.93
2019-03-27T17:54:41.785Z,24.50
2019-03-27T17:57:09.421Z,21.00
2019-03-27T17:59:37.017Z,20.60
2019-03-27T18:02:04.598Z,23.50
2019-03-27T18:04:33.273Z,22.10
2019-03-27T18:07:00.903Z,22.03
2019-03-27T18:09:28.496Z,25.60
2019-03-27T18:11:56.451Z,25.33
2019-03-27T18:14:24.042Z,19.93
2019-03-27T18:16:51.631Z,21.93
2019-03-27T18:19:20.100Z,30.03
2019-03-27T18:21:47.699Z,21.20
2019-03-27T18:24:15.345Z,22.73
2019-03-27T18:26:44.200Z,24.60
2019-03-27T18:29:11.790Z,22.10
2019-03-27T18:31:40.152Z,27.60
2019-03-27T18:34:07.823Z,22.77
2019-03-27T18:36:35.407Z,25.37
2019-03-27T18:39:03.779Z,21.83
2019-03-27T18:41:32.192Z,22.00
2019-03-27T18:44:02.960Z,20.47
2019-03-27T18:46:27.358Z,27.27
2019-03-27T18:48:55.035Z,20.13
2019-03-27T18:51:22.623Z,21.10
2019-03-27T18:53:59.627Z,23.37
2019-03-27T18:56:17.867Z,22.37
2019-03-27T18:58:45.454Z,22.03
2019-03-27T19:01:13.051Z,18.57
2019-03-27T19:03:40.720Z,23.63
2019-03-27T19:06:09.083Z,24.70
2019-03-27T19:08:36.671Z,24.23
2019-03-27T19:11:05.074Z,24.00
2019-03-27T19:13:32.663Z,24.53
2019-03-27T19:16:00.254Z,26.27
2019-03-27T19:18:27.889Z,24.63
2019-03-27T19:20:55.479Z,24.03
2019-03-27T19:23:23.062Z,21.10
2019-03-27T19:25:51.546Z,25.07
2019-03-27T19:28:19.153Z,27.50
2019-03-27T19:30:46.727Z,26.03
2019-03-27T19:33:14.368Z,26.37
2019-03-27T19:35:43.049Z,25.37
2019-03-27T19:38:10.658Z,26.55
2019-03-27T19:40:38.304Z,24.23
2019-03-27T19:43:05.899Z,24.97
2019-03-27T19:45:34.249Z,35.47
2019-03-27T19:48:01.887Z,30.37
2019-03-27T19:50:29.475Z,31.50
2019-03-27T19:52:57.063Z,28.30
2019-03-27T19:55:24.781Z,24.73
2019-03-27T19:57:52.385Z,29.87
2019-03-27T20:00:20.735Z,22.50
2019-03-27T20:02:48.375Z,24.10
2019-03-27T20:05:15.972Z,24.33
2019-03-27T20:07:43.557Z,24.67
2019-03-27T20:10:11.964Z,27.17
2019-03-27T20:12:39.551Z,22.27
2019-03-27T20:15:12.357Z,26.13
2019-03-27T20:17:34.812Z,27.73
2019-03-27T20:20:02.453Z,27.10
2019-03-27T20:22:30.061Z,26.33
2019-03-27T20:24:57.773Z,27.27
2019-03-27T20:27:25.389Z,24.60
2019-03-27T20:29:52.996Z,23.77
2019-03-27T20:32:20.655Z,23.50
2019-03-27T20:34:48.278Z,20.27
2019-03-27T20:37:15.894Z,23.70
2019-03-27T20:39:43.538Z,22.60
2019-03-27T20:42:11.101Z,26.75
2019-03-27T20:44:38.685Z,22.27
2019-03-27T20:47:06.333Z,22.77
2019-03-27T20:49:33.925Z,26.43
2019-03-27T20:52:01.517Z,23.53
2019-03-27T20:54:29.656Z,26.63
2019-03-27T20:56:57.241Z,23.83
2019-03-27T20:59:25.595Z,27.20
2019-03-27T21:01:53.537Z,21.67
2019-03-27T21:04:21.122Z,25.63
2019-03-27T21:06:48.708Z,24.40
2019-03-27T21:09:16.351Z,28.27
2019-03-27T21:11:43.939Z,28.27
2019-03-27T21:14:12.323Z,30.87
2019-03-27T21:16:39.960Z,28.85
2019-03-27T21:19:07.893Z,25.33
2019-03-27T21:21:35.482Z,26.73
2019-03-27T21:24:03.113Z,22.80
2019-03-27T21:26:30.695Z,30.10
2019-03-27T21:28:58.549Z,31.47
2019-03-27T21:31:26.241Z,28.23
2019-03-27T21:33:53.863Z,28.63
2019-03-27T21:36:21.468Z,27.57
2019-03-27T21:38:49.132Z,25.90
2019-03-27T21:41:16.731Z,31.70
2019-03-27T21:43:44.343Z,30.13
2019-03-27T21:46:12.007Z,28.60
2019-03-27T21:48:39.621Z,27.27
2019-03-27T21:51:07.658Z,31.05
2019-03-27T21:53:37.864Z,32.43
2019-03-27T21:56:05.474Z,28.30
2019-03-27T21:58:33.078Z,30.90
2019-03-27T22:01:00.740Z,31.37
2019-03-27T22:03:28.403Z,27.37
2019-03-27T22:05:56.716Z,32.13
2019-03-27T22:08:24.372Z,31.83
2019-03-27T22:10:51.986Z,28.10
2019-03-27T22:13:19.597Z,25.93
2019-03-27T22:15:47.250Z,29.03
2019-03-27T22:18:14.865Z,26.63
2019-03-27T22:20:42.767Z,25.07
2019-03-27T22:23:10.784Z,26.93
2019-03-27T22:25:38.407Z,23.77
2019-03-27T22:28:06.005Z,23.40
2019-03-27T22:30:34.430Z,27.73
2019-03-27T22:33:02.037Z,24.63
2019-03-27T22:35:29.645Z,25.70
2019-03-27T22:37:57.304Z,26.37
2019-03-27T22:40:24.909Z,26.77
2019-03-27T22:42:52.521Z,26.97
2019-03-27T22:45:20.255Z,31.43
2019-03-27T22:47:47.861Z,35.40
2019-03-27T22:50:15.477Z,29.63
2019-03-27T22:52:43.931Z,30.67
2019-03-27T22:55:11.545Z,29.03
2019-03-27T22:57:39.153Z,26.93
2019-03-27T23:00:09.850Z,32.10
2019-03-27T23:02:37.491Z,30.80
2019-03-27T23:05:05.968Z,32.00
2019-03-27T23:07:34.479Z,30.83
2019-03-27T23:10:02.302Z,29.60
2019-03-27T23:12:29.976Z,30.67
2019-03-27T23:14:57.710Z,43.10
2019-03-27T23:17:25.374Z,35.10
2019-03-27T23:19:52.993Z,30.03
2019-03-27T23:22:20.657Z,32.13
2019-03-27T23:24:48.299Z,30.83
2019-03-27T23:27:15.915Z,30.70
2019-03-27T23:29:43.556Z,32.53
2019-03-27T23:32:11.166Z,34.03
2019-03-27T23:34:38.775Z,31.90
2019-03-27T23:37:06.428Z,31.37
2019-03-27T23:39:34.044Z,31.73
2019-03-27T23:42:01.649Z,32.90
2019-03-27T23:44:30.096Z,28.77
2019-03-27T23:46:57.707Z,35.70
2019-03-27T23:49:25.321Z,33.87
2019-03-27T23:51:52.962Z,32.57
2019-03-27T23:54:20.973Z,31.80
2019-03-27T23:56:48.587Z,32.03
2019-03-27T23:59:16.287Z,27.93
